CLT weather

Charlotte Douglas International Airport
Charlotte, North Carolina, United States

Public forecast

Using degrees Fahrenheit for public forecast. Weather courtesy of forecast.io.

METAR (pilot weather report)

Retrieved 2018/12/13 02:52 UTC (27 minutes ago):

KCLT 130252Z 00000KT 10SM SCT190 BKN250 03/00 A3021 RMK AO2 SLP233 T00330000 53000

TAF (pilot weather forecast)

Forecast is more than 12 hours old.

Retrieved 2018/12/12 00:24 UTC (1 day ago):

TAF KCLT 122322Z 1300/1406 18002KT P6SM OVC200 FM131600 17005KT P6SM OVC150 FM140000 08004KT P6SM OVC060 PROB30 1404/1406 -SHRA